Flight Track Log - Related Links

Times and Time Zones

All times are in EDT time to prevent confusion due to time zone crossing. See the N607AH flight status page for this flight to view local times or setup timezone preferences in your user account.

Time Position Orientation Groundspeed Altitude Reporting Facility
EDT Latitude Longitude Course Direction KTS MPH feet Rate Location/Type
Fri 05:06:08 PM 42.4667 -71.2667 36° Northeast 139 160 800  Level KA90
Fri 05:06:50 PM 42.5000 -71.2333 36° Northeast 148 170 1,800 1,294 Climbing KA90
Fri 05:07:50 PM 42.5333 -71.2000 36° Northeast 167 192 3,000 1,250 Climbing KA90
Fri 05:08:50 PM 42.5667 -71.1667 36° Northeast 174 200 4,300 1,300 Climbing KA90
Fri 05:09:50 PM 42.6000 -71.1167 48° Northeast 179 206 5,600 1,233 Climbing KA90
Fri 05:11:16 PM 42.6461 -71.0458 48° Northeast 198 228 7,300 1,274 Climbing Boston Center
Fri 05:12:16 PM 42.6808 -70.9856 52° Northeast 188 216 8,700 1,182 Climbing Boston Center
Fri 05:13:28 PM 42.7156 -70.9367 46° Northeast 188 216 9,900 1,273 Climbing Boston Center
Fri 05:14:28 PM 42.7669 -70.8817 38° Northeast 195 224 11,500 1,450 Climbing Boston Center
Fri 05:15:28 PM 42.8142 -70.8297 39° Northeast 201 231 12,800 750 Climbing Boston Center
Fri 05:16:28 PM 42.8572 -70.7803 40° Northeast 208 239 13,000 100 Climbing Boston Center
Fri 05:17:28 PM 42.9167 -70.7164 38° Northeast 234 269 13,000  Level Boston Center
Fri 05:18:28 PM 42.9681 -70.6611 38° Northeast 253 291 13,000 -50 Level Boston Center
Fri 05:19:28 PM 43.0314 -70.5881 40° Northeast 258 297 12,900 -50 Descending Boston Center
Fri 05:20:28 PM 43.0825 -70.5325 38° Northeast 258 297 12,900 50 Level Boston Center
Fri 05:21:28 PM 43.1461 -70.4622 39° Northeast 258 297 13,000  Climbing Boston Center
Fri 05:22:28 PM 43.1972 -70.4036 40° Northeast 258 297 12,900  Descending Boston Center
Fri 05:23:28 PM 43.2606 -70.3361 38° Northeast 265 305 13,000 50 Climbing Boston Center
Fri 05:24:28 PM 43.3136 -70.2742 40° Northeast 265 305 13,000  Level Boston Center
Fri 05:25:28 PM 43.3747 -70.2064 39° Northeast 265 305 13,000  Level Boston Center
Fri 05:26:40 PM 43.4278 -70.1472 39° Northeast 271 312 13,000 -45 Level Boston Center
Fri 05:27:40 PM 43.5011 -70.0642 39° Northeast 271 312 12,900  Descending Boston Center
Fri 05:28:40 PM 43.5561 -69.9992 41° Northeast 266 306 13,000 50 Climbing Boston Center
Fri 05:29:40 PM 43.6131 -69.9367 38° Northeast 266 306 13,000 -250 Level Boston Center
Fri 05:30:40 PM 43.6678 -69.8711 41° Northeast 266 306 12,500 -600 Descending Boston Center
Fri 05:31:40 PM 43.7269 -69.8083 37° Northeast 266 306 11,800 -750 Descending Boston Center
Fri 05:32:40 PM 43.7817 -69.7425 41° Northeast 266 306 11,000 -750 Descending Boston Center
Fri 05:33:40 PM 43.8383 -69.6794 39° Northeast 261 300 10,300 -750 Descending Boston Center
Fri 05:34:40 PM 43.8933 -69.6167 39° Northeast 261 300 9,500 -550 Descending Boston Center
Fri 05:35:40 PM 43.9439 -69.5594 39° Northeast 261 300 9,200 -150 Descending Boston Center
Fri 05:36:40 PM 44.0025 -69.4900 40° Northeast 250 288 9,200  Level Boston Center
Fri 05:37:40 PM 44.0511 -69.4328 40° Northeast 250 288 9,200 -250 Level Boston Center
Fri 05:38:40 PM 44.1100 -69.3692 38° Northeast 250 288 8,700 -100 Descending Boston Center
Fri 05:39:40 PM 44.1644 -69.3028 41° Northeast 256 295 9,000 -1,150 Climbing Boston Center
Fri 05:40:40 PM 44.2169 -69.2419 40° Northeast 251 289 6,400 -1,850 Descending Boston Center
Fri 05:41:40 PM 44.2631 -69.1814 43° Northeast 241 277 5,300 -1,150 Descending Boston Center
Fri 05:42:40 PM 44.3008 -69.1128 52° Northeast 228 262 4,100 -1,150 Descending Boston Center
Fri 05:43:40 PM 44.3403 -69.0408 53° Northeast 223 257 3,000 -850 Descending Boston Center
Fri 05:44:40 PM 44.3719 -68.9836 52° Northeast 207 238 2,400 -700 Descending Boston Center
Fri 05:45:40 PM 44.3989 -68.9764 11° North 133 153 1,600 3,300 Descending Boston Center
Fri 05:46:40 PM 44.4292 -68.9456 36° Northeast 133 153 9,000 3,700 Climbing Boston Center
Fri 05:47:40 PM 44.4594 -68.9147 36° Northeast 133 153 9,000  Level Boston Center
Fri 05:49:00 PM 44.4000 -69.0000 251° West  Level FlightAware Approximate
Fri 05:56:00 PM 44.4094 -69.0118 251° West  Level Estimated
Fri 05:57:00 PM 44.4094 -69.0118 251° West  Level Estimated
Fri 05:58:00 PM 44.4094 -69.0118 251° West  Level Estimated
Fri 05:59:00 PM 44.4094 -69.0118 251° West  Level Estimated
Fri 06:00:00 PM 44.4094 -69.0118 251° West  Level Estimated

Login

Don't have an account? Register now (free) for customized features, flight alerts, and more!